RJSF/FKS METAR and TAF weather

Enter ICAO airport designator
Station Type Date Time Source
RJSF METAR 2022/06/27 09:00 UTC NOAA

RJSF 270900Z 02014KT 9999 TS FEW020 FEW030CB BKN180 25/21 Q1014


Station Type Date Time Source
RJSF Decoded METAR 2022/06/27 09:00 UTC NOAA

Fukushima Airport, Japan (RJSF) 37-14N 140-26E 375M
Jun 27, 2022 - 05:00 AM EDT / 2022.06.27 0900 UTC
Wind: from the NNE (020 degrees) at 16 MPH (14 KT):0
Visibility: greater than 7 mile(s):0
Sky conditions: mostly cloudy
Weather: thunder; Cumulonimbus clouds observed
Temperature: 77 F (25 C)
Dew Point: 69 F (21 C)
Relative Humidity: 78%
Pressure (altimeter): 29.94 in. Hg (1014 hPa)
ob: RJSF 270900Z 02014KT 9999 TS FEW020 FEW030CB BKN180 25/21 Q1014
cycle: 9

Station Type Date Time Source
RJSF TAF 2022/06/27 08:45 UTC NOAA

TAF
AMD TAF
AMD RJSF 270843Z 2708/2812 36010KT 8000 -SHRA FEW015 BKN030 BKN040
TEMPO 2708/2711 4000 TSRA BR FEW010 BKN020 BKN030 FEW030CB
BECMG 2800/2803 20008KT

Example: see airport list